createdAt,value
2023-02-11T00:01:09.531Z,101933.31
2023-02-11T00:03:38.148Z,101922.84
2023-02-11T00:06:10.730Z,101915.17
2023-02-11T00:08:38.530Z,101902.77
2023-02-11T00:11:05.340Z,101912.54
2023-02-11T00:13:32.199Z,101913.92
2023-02-11T00:15:59.134Z,101906.27
2023-02-11T00:18:25.907Z,101906.23
2023-02-11T00:20:52.637Z,101898.55
2023-02-11T00:23:19.644Z,101894.18
2023-02-11T00:25:46.307Z,101890.88
2023-02-11T00:28:13.030Z,101883.20
2023-02-11T00:30:40.646Z,101878.66
2023-02-11T00:33:08.195Z,101883.01
2023-02-11T00:35:38.323Z,101875.33
2023-02-11T00:38:08.101Z,101878.83
2023-02-11T00:40:34.850Z,101874.64
2023-02-11T00:43:03.162Z,101863.83
2023-02-11T00:45:30.093Z,101850.23
2023-02-11T00:47:56.835Z,101837.84
2023-02-11T00:50:24.066Z,101826.67
2023-02-11T00:52:51.183Z,101820.55
2023-02-11T00:55:18.117Z,101808.69
2023-02-11T00:57:45.586Z,101801.38
2023-02-11T01:00:13.484Z,101793.20
2023-02-11T01:02:40.089Z,101794.05
2023-02-11T01:05:07.476Z,101792.48
2023-02-11T01:07:34.429Z,101790.89
2023-02-11T01:10:02.086Z,101794.38
2023-02-11T01:12:29.746Z,101781.83
2023-02-11T01:14:58.257Z,101775.02
2023-02-11T01:17:24.838Z,101768.24
2023-02-11T01:19:51.924Z,101760.02
2023-02-11T01:22:18.765Z,101752.38
2023-02-11T01:24:47.116Z,101743.31
2023-02-11T01:27:13.851Z,101733.90
2023-02-11T01:29:40.743Z,101719.95
2023-02-11T01:32:07.573Z,101711.07
2023-02-11T01:34:34.344Z,101705.46
2023-02-11T01:37:01.393Z,101701.30
2023-02-11T01:39:33.775Z,101698.15
2023-02-11T01:42:02.810Z,101693.98
2023-02-11T01:44:34.590Z,101706.70
2023-02-11T01:47:04.457Z,101710.01
2023-02-11T01:49:35.557Z,101719.95
2023-02-11T01:52:09.722Z,101722.22
2023-02-11T01:55:14.496Z,101728.33
2023-02-11T01:57:45.596Z,101719.08
2023-02-11T02:00:30.254Z,101704.28
2023-02-11T02:02:59.890Z,101699.42
2023-02-11T02:05:41.892Z,101690.52
2023-02-11T02:08:17.802Z,101677.28
2023-02-11T02:10:47.634Z,101668.92
2023-02-11T02:13:16.874Z,101663.70
2023-02-11T02:15:52.859Z,101632.68
2023-02-11T02:18:32.527Z,101641.05
2023-02-11T02:21:01.820Z,101637.23
2023-02-11T02:23:36.506Z,101603.09
2023-02-11T02:26:19.252Z,101598.91
2023-02-11T02:28:51.825Z,101600.50
2023-02-11T02:31:46.707Z,101606.73
2023-02-11T02:34:22.962Z,101605.02
2023-02-11T02:37:02.258Z,101595.28
2023-02-11T02:39:33.411Z,101601.88
2023-02-11T02:42:01.557Z,101600.82
2023-02-11T02:44:29.392Z,101597.34
2023-02-11T02:46:56.269Z,101592.11
2023-02-11T02:49:23.081Z,101591.23
2023-02-11T02:52:12.890Z,101592.09
2023-02-11T02:55:14.080Z,101582.30
2023-02-11T02:57:49.950Z,101578.98
2023-02-11T03:00:32.476Z,101575.14
2023-02-11T03:03:15.839Z,101582.98
2023-02-11T03:06:02.508Z,101574.58
2023-02-11T03:08:46.911Z,101571.25
2023-02-11T03:11:17.798Z,101572.61
2023-02-11T03:13:47.263Z,101573.83
2023-02-11T03:16:22.364Z,101552.19
2023-02-11T03:18:55.234Z,101571.73
2023-02-11T03:21:23.845Z,101569.80
2023-02-11T03:23:55.885Z,101557.41
2023-02-11T03:26:39.906Z,101544.34
2023-02-11T03:29:25.368Z,101543.29
2023-02-11T03:32:01.274Z,101545.39
2023-02-11T03:34:52.385Z,101538.59
2023-02-11T03:37:21.691Z,101525.36
2023-02-11T03:39:54.331Z,101523.45
2023-02-11T03:42:24.283Z,101514.75
2023-02-11T03:45:03.953Z,101513.02
2023-02-11T03:47:34.709Z,101510.33
2023-02-11T03:50:04.463Z,101505.03
2023-02-11T03:52:32.141Z,101501.72
2023-02-11T03:55:03.662Z,101501.20
2023-02-11T03:57:30.627Z,101500.67
2023-02-11T03:59:58.633Z,101504.15
2023-02-11T04:02:29.861Z,101498.93
2023-02-11T04:04:57.076Z,101487.60
2023-02-11T04:07:24.506Z,101478.54
2023-02-11T04:09:51.908Z,101476.09
2023-02-11T04:12:19.052Z,101469.50
2023-02-11T04:14:53.716Z,101469.00
2023-02-11T04:17:35.013Z,101462.04
2023-02-11T04:20:02.243Z,101450.36
2023-02-11T04:22:29.725Z,101447.07
2023-02-11T04:24:58.377Z,101440.77
2023-02-11T04:27:25.079Z,101439.77
2023-02-11T04:29:51.826Z,101440.64
2023-02-11T04:32:18.488Z,101439.59
2023-02-11T04:34:45.344Z,101432.27
2023-02-11T04:37:12.953Z,101430.71
2023-02-11T04:39:39.819Z,101426.89
2023-02-11T04:42:07.129Z,101413.33
2023-02-11T04:44:33.850Z,101404.96
2023-02-11T04:47:01.228Z,101398.21
2023-02-11T04:49:28.335Z,101397.88
2023-02-11T04:51:55.032Z,101381.30
2023-02-11T04:54:21.967Z,101369.80
2023-02-11T04:56:49.248Z,101367.34
2023-02-11T04:59:16.082Z,101368.39
2023-02-11T05:01:43.086Z,101364.02
2023-02-11T05:04:09.867Z,101362.83
2023-02-11T05:06:39.262Z,101364.76
2023-02-11T05:09:06.141Z,101362.70
2023-02-11T05:11:32.953Z,101363.38
2023-02-11T05:13:59.812Z,101350.83
2023-02-11T05:16:26.714Z,101345.94
2023-02-11T05:18:55.193Z,101342.80
2023-02-11T05:21:22.054Z,101341.06
2023-02-11T05:23:48.780Z,101338.11
2023-02-11T05:26:15.843Z,101333.95
2023-02-11T05:28:43.184Z,101330.98
2023-02-11T05:31:11.131Z,101330.13
2023-02-11T05:33:37.932Z,101328.91
2023-02-11T05:36:08.981Z,101326.65
2023-02-11T05:38:36.859Z,101327.70
2023-02-11T05:41:05.050Z,101329.95
2023-02-11T05:43:34.265Z,101326.65
2023-02-11T05:46:01.226Z,101322.46
2023-02-11T05:48:27.998Z,101320.00
2023-02-11T05:50:55.253Z,101319.98
2023-02-11T05:53:22.297Z,101321.88
2023-02-11T05:55:49.850Z,101306.06
2023-02-11T05:58:17.314Z,101306.14
2023-02-11T06:00:44.694Z,101305.94
2023-02-11T06:03:11.252Z,101309.06
2023-02-11T06:05:38.058Z,101308.88
2023-02-11T06:08:05.822Z,101304.15
2023-02-11T06:10:32.482Z,101299.23
2023-02-11T06:12:59.352Z,101298.54
2023-02-11T06:15:26.147Z,101294.85
2023-02-11T06:17:53.344Z,101289.96
2023-02-11T06:20:20.525Z,101293.92
2023-02-11T06:22:47.553Z,101286.23
2023-02-11T06:25:15.142Z,101280.07
2023-02-11T06:27:41.936Z,101281.86
2023-02-11T06:30:09.665Z,101275.91
2023-02-11T06:32:44.031Z,101262.89
2023-02-11T06:35:14.040Z,101264.73
2023-02-11T06:37:41.294Z,101260.73
2023-02-11T06:40:09.271Z,101262.77
2023-02-11T06:42:38.273Z,101256.48
2023-02-11T06:45:05.561Z,101252.13
2023-02-11T06:47:32.252Z,101248.63
2023-02-11T06:49:58.992Z,101247.55
2023-02-11T06:52:26.419Z,101254.35
2023-02-11T06:54:53.187Z,101257.27
2023-02-11T06:57:20.299Z,101257.08
2023-02-11T06:59:46.914Z,101252.34
2023-02-11T07:02:13.709Z,101245.35
2023-02-11T07:04:41.395Z,101244.63
2023-02-11T07:07:08.065Z,101237.82
2023-02-11T07:09:35.397Z,101230.33
2023-02-11T07:12:02.318Z,101234.86
2023-02-11T07:14:29.010Z,101205.39
2023-02-11T07:16:55.658Z,101217.41
2023-02-11T07:19:22.508Z,101215.30
2023-02-11T07:21:49.120Z,101218.46
2023-02-11T07:24:15.888Z,101231.90
2023-02-11T07:26:44.216Z,101235.55
2023-02-11T07:29:11.105Z,101242.89
2023-02-11T07:31:37.825Z,101238.86
2023-02-11T07:34:04.727Z,101237.13
2023-02-11T07:36:32.189Z,101236.07
2023-02-11T07:38:59.681Z,101230.48
2023-02-11T07:41:27.230Z,101224.70
2023-02-11T07:43:54.973Z,101217.91
2023-02-11T07:46:28.509Z,101197.75
2023-02-11T07:48:55.761Z,101210.22
2023-02-11T07:51:25.615Z,101211.42
2023-02-11T07:53:53.638Z,101214.52
2023-02-11T07:56:21.417Z,101218.66
2023-02-11T07:58:48.700Z,101216.73
2023-02-11T08:01:21.918Z,101217.91
2023-02-11T08:03:48.895Z,101213.91
2023-02-11T08:06:19.926Z,101215.30
2023-02-11T08:08:47.402Z,101214.50
2023-02-11T08:11:17.217Z,101210.95
2023-02-11T08:13:45.045Z,101209.46
2023-02-11T08:16:22.928Z,101209.19
2023-02-11T08:18:51.601Z,101208.04
2023-02-11T08:21:19.509Z,101216.65
2023-02-11T08:23:47.163Z,101203.45
2023-02-11T08:26:25.900Z,101206.49
2023-02-11T08:28:54.994Z,101202.02
2023-02-11T08:34:11.047Z,101200.38
2023-02-11T08:36:39.669Z,101208.73
2023-02-11T08:39:19.316Z,101209.83
2023-02-11T08:41:49.759Z,101208.64
2023-02-11T08:44:18.223Z,101204.16
2023-02-11T08:46:46.557Z,101193.22
2023-02-11T08:49:14.151Z,101163.48
2023-02-11T08:51:41.163Z,101164.52
2023-02-11T08:54:09.429Z,101157.18
2023-02-11T08:56:39.244Z,101136.31
2023-02-11T08:59:06.939Z,101142.71
2023-02-11T09:01:33.786Z,101142.02
2023-02-11T09:04:01.064Z,101141.48
2023-02-11T09:06:28.575Z,101130.85
2023-02-11T09:08:56.796Z,101121.08
2023-02-11T09:11:35.376Z,101110.09
2023-02-11T09:14:03.391Z,101096.98
2023-02-11T09:16:33.108Z,101087.22
2023-02-11T09:19:01.719Z,101079.14
2023-02-11T09:21:29.167Z,101071.95
2023-02-11T09:23:56.129Z,101075.89
2023-02-11T09:26:25.835Z,101081.91
2023-02-11T09:28:52.872Z,101079.88
2023-02-11T09:31:22.678Z,101084.17
2023-02-11T09:33:53.023Z,101094.07
2023-02-11T09:36:22.669Z,101113.53
2023-02-11T09:38:49.487Z,101098.40
2023-02-11T09:41:38.991Z,101115.16
2023-02-11T09:44:10.083Z,101112.51
2023-02-11T09:46:41.941Z,101120.98
2023-02-11T09:49:31.770Z,101129.11
2023-02-11T09:52:06.064Z,101137.08
2023-02-11T09:55:05.841Z,101143.30
2023-02-11T10:00:31.665Z,101116.00
2023-02-11T10:03:31.090Z,101108.11
2023-02-11T10:06:06.706Z,101107.36
2023-02-11T10:09:22.155Z,101098.24
2023-02-11T10:11:59.844Z,101092.46
2023-02-11T10:15:11.980Z,101086.60
2023-02-11T10:17:45.994Z,101100.09
2023-02-11T10:20:35.249Z,101103.74
2023-02-11T10:23:24.138Z,101103.90
2023-02-11T10:25:56.241Z,101098.17
2023-02-11T10:28:29.472Z,101091.02
2023-02-11T10:31:18.230Z,101091.89
2023-02-11T10:33:49.841Z,101083.34
2023-02-11T10:36:18.084Z,101073.06
2023-02-11T10:38:45.083Z,101059.83
2023-02-11T10:41:27.739Z,101054.91
2023-02-11T10:43:55.132Z,101049.51
2023-02-11T10:46:26.372Z,101032.20
2023-02-11T10:48:53.675Z,101010.98
2023-02-11T10:51:26.159Z,101009.59
2023-02-11T10:54:13.758Z,101013.04
2023-02-11T10:56:45.956Z,101000.20
2023-02-11T10:59:39.679Z,100991.77
2023-02-11T11:02:34.221Z,100998.94
2023-02-11T11:05:06.130Z,101008.56
2023-02-11T11:07:34.317Z,101002.22
2023-02-11T11:10:03.502Z,101003.56
2023-02-11T11:12:30.419Z,100983.44
2023-02-11T11:15:18.284Z,100988.14
2023-02-11T11:18:20.524Z,100981.31
2023-02-11T11:21:07.357Z,100996.23
2023-02-11T11:23:36.505Z,101005.63
2023-02-11T11:26:12.495Z,101005.38
2023-02-11T11:28:54.368Z,101016.98
2023-02-11T11:31:29.831Z,101016.59
2023-02-11T11:33:58.967Z,101024.88
2023-02-11T11:36:36.332Z,101029.52
2023-02-11T11:39:29.308Z,101029.41
2023-02-11T11:41:59.174Z,101016.52
2023-02-11T11:44:33.700Z,101025.44
2023-02-11T11:47:13.064Z,101016.33
2023-02-11T11:50:13.428Z,101015.24
2023-02-11T11:52:49.350Z,100999.67
2023-02-11T11:55:21.543Z,100998.27
2023-02-11T11:57:48.847Z,100998.06
2023-02-11T12:00:18.289Z,100991.26
2023-02-11T12:03:15.023Z,100970.13
2023-02-11T12:06:05.267Z,100969.25
2023-02-11T12:08:50.621Z,100972.02
2023-02-11T12:11:58.641Z,100973.71
2023-02-11T12:14:46.772Z,100979.12
2023-02-11T12:17:33.722Z,100981.90
2023-02-11T12:20:13.490Z,100972.98
2023-02-11T12:23:02.596Z,100978.70
2023-02-11T12:25:38.158Z,100967.88
2023-02-11T12:28:23.679Z,100965.05
2023-02-11T12:30:53.494Z,100966.39
2023-02-11T12:33:34.079Z,100970.02
2023-02-11T12:36:06.636Z,100981.80
2023-02-11T12:38:56.640Z,100980.50
2023-02-11T12:41:50.749Z,100980.27
2023-02-11T12:44:29.955Z,100978.25
2023-02-11T12:47:30.235Z,100976.05
2023-02-11T12:50:30.941Z,100979.76
2023-02-11T12:53:34.536Z,100977.67
2023-02-11T12:56:12.299Z,100975.74
2023-02-11T12:58:45.421Z,100975.09
2023-02-11T13:01:39.969Z,100968.31
2023-02-11T13:04:17.018Z,100963.45
2023-02-11T13:06:54.198Z,100976.04
2023-02-11T13:09:35.180Z,100978.01
2023-02-11T13:12:27.773Z,100970.22
2023-02-11T13:14:58.874Z,100962.39
2023-02-11T13:17:36.426Z,100970.15
2023-02-11T13:20:43.560Z,100964.92
2023-02-11T13:23:41.454Z,100971.16
2023-02-11T13:26:26.728Z,100976.15
2023-02-11T13:29:15.367Z,100980.09
2023-02-11T13:31:42.569Z,100976.27
2023-02-11T13:34:46.720Z,100973.94
2023-02-11T13:37:36.690Z,100979.48
2023-02-11T13:40:25.543Z,100979.13
2023-02-11T13:42:56.848Z,100977.16
2023-02-11T13:45:42.227Z,100975.20
2023-02-11T13:48:25.062Z,100971.52
2023-02-11T13:50:55.791Z,100970.79
2023-02-11T13:53:26.966Z,100968.83
2023-02-11T13:56:28.291Z,100969.69
2023-02-11T13:58:56.234Z,100973.52
2023-02-11T14:01:38.505Z,100957.79
2023-02-11T14:04:44.365Z,100975.92
2023-02-11T14:07:42.123Z,100983.95
2023-02-11T14:10:55.395Z,100980.05
2023-02-11T14:13:30.127Z,100974.97
2023-02-11T14:16:10.696Z,100970.08
2023-02-11T14:19:00.828Z,100975.80
2023-02-11T14:21:28.982Z,100972.45
2023-02-11T14:24:01.665Z,100972.59
2023-02-11T14:26:41.159Z,100976.61
2023-02-11T14:29:17.498Z,100965.92
2023-02-11T14:32:21.640Z,100979.38
2023-02-11T14:34:56.123Z,100982.33
2023-02-11T14:37:50.459Z,100982.49
2023-02-11T14:40:20.696Z,100986.15
2023-02-11T14:42:47.506Z,100985.42
2023-02-11T14:45:22.471Z,100989.25
2023-02-11T14:48:01.064Z,100988.89
2023-02-11T14:50:38.409Z,100994.30
2023-02-11T14:53:12.252Z,100996.74
2023-02-11T14:55:42.974Z,100995.70
2023-02-11T14:58:17.167Z,101001.95
2023-02-11T15:00:53.821Z,101007.68
2023-02-11T15:03:42.220Z,101008.73
2023-02-11T15:06:15.046Z,101007.86
2023-02-11T15:08:46.513Z,101008.90
2023-02-11T15:11:17.511Z,101009.75
2023-02-11T15:13:49.102Z,101010.95
2023-02-11T15:16:20.246Z,101015.29
2023-02-11T15:18:52.691Z,101015.29
2023-02-11T15:21:26.107Z,101011.79
2023-02-11T15:24:03.515Z,101010.05
2023-02-11T15:26:30.341Z,101014.77
2023-02-11T15:28:57.186Z,101013.53
2023-02-11T15:31:26.266Z,101004.92
2023-02-11T15:34:07.470Z,101024.13
2023-02-11T15:36:35.765Z,101015.16
2023-02-11T15:39:17.650Z,101035.14
2023-02-11T15:41:44.973Z,101036.34
2023-02-11T15:44:32.835Z,101040.67
2023-02-11T15:46:59.885Z,101035.25
2023-02-11T15:49:26.874Z,101039.08
2023-02-11T15:51:57.218Z,101041.52
2023-02-11T15:54:28.750Z,101049.17
2023-02-11T15:57:04.265Z,101049.16
2023-02-11T15:59:35.556Z,101053.50
2023-02-11T16:02:09.687Z,101051.76
2023-02-11T16:04:37.153Z,101052.27
2023-02-11T16:07:04.644Z,101057.66
2023-02-11T16:09:34.563Z,101057.09
2023-02-11T16:12:22.431Z,101056.54
2023-02-11T16:14:49.402Z,101044.56
2023-02-11T16:17:26.816Z,101047.44
2023-02-11T16:19:54.368Z,101058.85
2023-02-11T16:22:29.461Z,101061.08
2023-02-11T16:24:59.602Z,101066.81
2023-02-11T16:27:31.680Z,101062.61
2023-02-11T16:29:58.611Z,101067.98
2023-02-11T16:32:28.697Z,101069.71
2023-02-11T16:35:00.121Z,101074.39
2023-02-11T16:37:26.923Z,101077.50
2023-02-11T16:39:58.342Z,101084.47
2023-02-11T16:42:26.148Z,101092.63
2023-02-11T16:44:53.330Z,101095.25
2023-02-11T16:47:29.311Z,101102.73
2023-02-11T16:49:57.082Z,101105.48
2023-02-11T16:52:25.140Z,101102.84
2023-02-11T16:55:00.113Z,101094.88
2023-02-11T16:57:30.307Z,101111.00
2023-02-11T17:00:01.487Z,101112.52
2023-02-11T17:02:32.361Z,101116.19
2023-02-11T17:05:03.322Z,101118.80
2023-02-11T17:07:31.430Z,101122.48
2023-02-11T17:09:58.334Z,101119.48
2023-02-11T17:12:26.165Z,101124.69
2023-02-11T17:14:58.837Z,101131.86
2023-02-11T17:17:25.581Z,101134.82
2023-02-11T17:19:52.377Z,101114.83
2023-02-11T17:22:19.627Z,101141.39
2023-02-11T17:24:46.238Z,101150.79
2023-02-11T17:27:13.562Z,101155.85
2023-02-11T17:29:40.505Z,101160.54
2023-02-11T17:32:07.986Z,101165.43
2023-02-11T17:34:35.153Z,101175.53
2023-02-11T17:37:08.408Z,101180.09
2023-02-11T17:39:36.631Z,101183.71
2023-02-11T17:42:04.971Z,101182.10
2023-02-11T17:44:35.144Z,101183.30
2023-02-11T17:47:02.078Z,101170.29
2023-02-11T17:49:29.269Z,101171.02
2023-02-11T17:51:56.747Z,101188.13
2023-02-11T17:54:24.320Z,101187.35
2023-02-11T17:56:54.594Z,101191.98
2023-02-11T17:59:22.625Z,101197.36
2023-02-11T18:01:49.574Z,101189.23
2023-02-11T18:04:18.523Z,101198.48
2023-02-11T18:06:45.915Z,101209.33
2023-02-11T18:09:13.465Z,101211.58
2023-02-11T18:11:41.357Z,101217.86
2023-02-11T18:14:09.860Z,101218.02
2023-02-11T18:16:42.611Z,101217.67
2023-02-11T18:19:10.959Z,101221.67
2023-02-11T18:21:38.122Z,101206.90
2023-02-11T18:24:06.970Z,101224.23
2023-02-11T18:26:35.111Z,101228.40
2023-02-11T18:29:03.280Z,101232.75
2023-02-11T18:31:30.165Z,101236.58
2023-02-11T18:33:58.181Z,101241.63
2023-02-11T18:36:24.859Z,101247.20
2023-02-11T18:38:53.268Z,101243.51
2023-02-11T18:41:20.550Z,101250.64
2023-02-11T18:43:48.385Z,101251.69
2023-02-11T18:46:17.372Z,101246.13
2023-02-11T18:48:45.728Z,101261.77
2023-02-11T18:51:15.483Z,101265.44
2023-02-11T18:53:42.938Z,101270.34
2023-02-11T18:56:17.052Z,101273.11
2023-02-11T18:58:43.921Z,101272.73
2023-02-11T19:01:20.322Z,101277.64
2023-02-11T19:03:48.220Z,101278.50
2023-02-11T19:06:26.834Z,101280.41
2023-02-11T19:09:00.250Z,101284.25
2023-02-11T19:11:53.376Z,101284.23
2023-02-11T19:14:26.746Z,101287.55
2023-02-11T19:16:56.239Z,101292.78
2023-02-11T19:19:25.163Z,101296.95
2023-02-11T19:21:54.329Z,101300.84
2023-02-11T19:24:22.419Z,101311.77
2023-02-11T19:26:51.467Z,101315.26
2023-02-11T19:29:19.716Z,101300.05
2023-02-11T19:31:47.116Z,101322.92
2023-02-11T19:34:15.499Z,101327.45
2023-02-11T19:36:43.232Z,101318.65
2023-02-11T19:39:10.291Z,101335.48
2023-02-11T19:41:37.301Z,101329.87
2023-02-11T19:44:07.777Z,101335.27
2023-02-11T19:46:40.219Z,101336.84
2023-02-11T19:49:07.704Z,101341.54
2023-02-11T19:51:38.549Z,101352.20
2023-02-11T19:54:06.434Z,101354.95
2023-02-11T19:56:33.643Z,101356.12
2023-02-11T19:59:01.973Z,101365.34
2023-02-11T20:01:29.463Z,101372.98
2023-02-11T20:03:57.168Z,101380.41
2023-02-11T20:06:27.420Z,101382.28
2023-02-11T20:08:59.591Z,101390.59
2023-02-11T20:11:29.114Z,101394.18
2023-02-11T20:13:57.386Z,101394.45
2023-02-11T20:16:44.565Z,101396.86
2023-02-11T20:19:17.353Z,101405.21
2023-02-11T20:21:46.978Z,101412.17
2023-02-11T20:24:15.694Z,101412.67
2023-02-11T20:26:42.971Z,101418.58
2023-02-11T20:29:09.604Z,101420.14
2023-02-11T20:31:37.138Z,101415.65
2023-02-11T20:34:04.117Z,101432.33
2023-02-11T20:36:34.979Z,101437.02
2023-02-11T20:39:04.248Z,101443.83
2023-02-11T20:41:34.568Z,101447.66
2023-02-11T20:44:04.362Z,101455.71
2023-02-11T20:46:33.149Z,101460.08
2023-02-11T20:49:01.258Z,101458.34
2023-02-11T20:51:31.661Z,101460.86
2023-02-11T20:53:59.031Z,101475.70
2023-02-11T20:56:29.641Z,101482.36
2023-02-11T20:58:57.900Z,101484.63
2023-02-11T21:01:27.998Z,101491.08
2023-02-11T21:04:02.596Z,101488.13
2023-02-11T21:06:35.472Z,101494.80
2023-02-11T21:09:06.149Z,101499.00
2023-02-11T21:11:33.819Z,101500.92
2023-02-11T21:14:01.752Z,101504.61
2023-02-11T21:16:28.785Z,101509.54
2023-02-11T21:18:56.386Z,101512.69
2023-02-11T21:21:23.741Z,101516.40
2023-02-11T21:23:50.563Z,101520.23
2023-02-11T21:26:17.384Z,101524.80
2023-02-11T21:28:44.343Z,101523.94
2023-02-11T21:31:26.309Z,101526.40
2023-02-11T21:34:08.139Z,101527.86
2023-02-11T21:36:35.327Z,101532.42
2023-02-11T21:39:03.266Z,101535.23
2023-02-11T21:41:30.131Z,101546.45
2023-02-11T21:43:57.236Z,101552.61
2023-02-11T21:46:24.486Z,101530.18
2023-02-11T21:48:51.684Z,101559.11
2023-02-11T21:51:26.624Z,101565.64
2023-02-11T21:53:59.007Z,101576.56
2023-02-11T21:56:27.560Z,101579.80
2023-02-11T21:58:56.064Z,101586.88
2023-02-11T22:01:31.557Z,101585.41
2023-02-11T22:03:59.486Z,101608.67
2023-02-11T22:06:32.961Z,101618.77
2023-02-11T22:09:07.914Z,101624.53
2023-02-11T22:11:35.275Z,101635.88
2023-02-11T22:14:02.299Z,101637.81
2023-02-11T22:16:30.691Z,101643.39
2023-02-11T22:19:12.884Z,101646.25
2023-02-11T22:21:40.049Z,101655.27
2023-02-11T22:24:06.836Z,101658.38
2023-02-11T22:26:33.535Z,101666.42
2023-02-11T22:29:01.058Z,101664.46
2023-02-11T22:31:33.257Z,101674.02
2023-02-11T22:34:01.120Z,101687.41
2023-02-11T22:36:39.729Z,101692.92
2023-02-11T22:39:10.221Z,101692.83
2023-02-11T22:41:37.972Z,101704.27
2023-02-11T22:44:05.031Z,101710.46
2023-02-11T22:46:32.074Z,101720.18
2023-02-11T22:48:58.884Z,101727.45
2023-02-11T22:51:28.228Z,101729.09
2023-02-11T22:54:06.266Z,101724.30
2023-02-11T22:56:34.820Z,101737.98
2023-02-11T22:59:04.868Z,101738.75
2023-02-11T23:01:31.843Z,101744.23
2023-02-11T23:04:00.953Z,101749.00
2023-02-11T23:06:38.192Z,101755.18
2023-02-11T23:09:14.147Z,101744.95
2023-02-11T23:11:41.170Z,101758.67
2023-02-11T23:14:09.668Z,101761.11
2023-02-11T23:16:36.804Z,101766.40
2023-02-11T23:19:06.744Z,101775.89
2023-02-11T23:21:37.092Z,101774.73
2023-02-11T23:24:07.993Z,101765.74
2023-02-11T23:26:37.696Z,101781.00
2023-02-11T23:29:04.940Z,101781.95
2023-02-11T23:31:34.761Z,101784.77
2023-02-11T23:34:06.138Z,101796.70
2023-02-11T23:36:33.018Z,101803.40
2023-02-11T23:39:00.180Z,101811.46
2023-02-11T23:41:27.019Z,101816.06
2023-02-11T23:43:56.970Z,101818.76
2023-02-11T23:46:25.803Z,101825.11
2023-02-11T23:48:53.129Z,101833.59
2023-02-11T23:51:20.332Z,101837.20
2023-02-11T23:53:48.987Z,101841.66
2023-02-11T23:56:18.853Z,101849.12
2023-02-11T23:58:49.731Z,101855.37
